Hadley, Pennsylvania
Current Conditions -  °F | °C
As of 7:53 AM on Saturday 25 Oct 2014 (Local Time) from KGKJ Reporting Station
Few Clouds Few Clouds  
Wind Chill: 45°   Ceiling: Unl
Heat Index: 47°   Visibility: 10mi
Dew Point: 39°   Wind: 5mph
Humidity: 74%   Direction: 190°S
Pressure: 29.91"   Gusts: NA
Location:  41.41°N, 80.23°W
Report Text: KGKJ 251153Z AUTO 19004KT 10SM FEW037 08/04 A2991 RMK AO2 SLP131 T00830039 10094 20078 58001 TSNO $
Loading
Personal Weather Stations






























Interactive Weather Map
Tropical Storm Tracking
New forecast layout! Learn more

10-Day Weather Forecast

Advertisements
Track Severe Weather on mobile